Time;durP1;ratioP1;P1;durP2;ratioP2;P2;SDS_P1;SDS_P2;PMS_P1;PMS_P2;Temp;Humidity;BMP_temperature;BMP_pressure;BME280_temperature;BME280_humidity;BME280_pressure;Samples;Min_cycle;Max_cycle;Signal;HPM_P1;HPM_P2
2022/05/09 00:01:53;;;;;;;20.45;6.55;;;;;;;10.76;56.67;102914.75;5178404;28;20502;-48
2022/05/09 00:04:26;;;;;;;30.27;6.43;;;;;;;10.78;56.75;102912.84;5180382;28;20913;-49
2022/05/09 00:06:59;;;;;;;15.57;5.50;;;;;;;10.72;56.71;102903.53;5164504;28;20491;-50
2022/05/09 00:09:31;;;;;;;27.90;6.18;;;;;;;10.80;56.93;102916.22;5176842;28;20463;-50
2022/05/09 00:12:05;;;;;;;21.33;5.82;;;;;;;10.78;57.04;102908.41;5176617;28;20425;-48
2022/05/09 00:14:38;;;;;;;23.45;6.22;;;;;;;10.82;56.85;102914.34;5171788;28;20459;-47
2022/05/09 00:17:12;;;;;;;19.83;5.45;;;;;;;10.73;56.99;102888.50;5177412;28;20443;-51
2022/05/09 00:19:44;;;;;;;22.40;7.10;;;;;;;10.85;57.10;102899.13;5181734;28;20451;-47
2022/05/09 00:22:17;;;;;;;20.05;5.25;;;;;;;10.85;57.09;102908.84;5179676;28;20451;-51
2022/05/09 00:24:49;;;;;;;15.77;5.70;;;;;;;10.78;57.09;102897.84;5166116;28;20951;-49
2022/05/09 00:27:22;;;;;;;18.17;6.07;;;;;;;10.56;57.14;102861.41;5172707;28;20444;-48
2022/05/09 00:29:58;;;;;;;18.42;6.30;;;;;;;10.85;57.14;102898.28;5175284;28;20455;-52
2022/05/09 00:32:31;;;;;;;22.17;5.97;;;;;;;10.82;57.35;102887.91;5181532;28;20776;-50
2022/05/09 00:35:05;;;;;;;16.85;6.28;;;;;;;10.65;57.38;102859.09;5171678;28;20825;-50
2022/05/09 00:37:38;;;;;;;16.75;5.05;;;;;;;10.85;57.37;102900.91;5176776;28;20499;-51
2022/05/09 00:40:13;;;;;;;22.20;6.18;;;;;;;10.80;57.39;102900.38;5183199;28;20757;-52
2022/05/09 00:42:47;;;;;;;16.95;5.63;;;;;;;10.74;57.39;102884.91;5180045;28;20547;-47
2022/05/09 00:45:23;;;;;;;18.60;5.80;;;;;;;10.67;57.56;102884.47;5173325;28;20532;-51
2022/05/09 00:47:57;;;;;;;18.70;6.28;;;;;;;10.60;57.59;102868.16;5185320;28;20475;-48
2022/05/09 00:50:32;;;;;;;19.80;5.90;;;;;;;10.66;57.72;102871.38;5181114;28;20589;-49
2022/05/09 00:53:08;;;;;;;21.15;6.65;;;;;;;10.61;57.77;102864.56;5192896;28;20497;-49
2022/05/09 00:55:45;;;;;;;16.05;5.82;;;;;;;10.75;57.83;102891.91;5189833;28;20413;-52
2022/05/09 00:58:23;;;;;;;21.33;6.43;;;;;;;10.49;57.96;102878.56;5192810;28;20437;-47
2022/05/09 01:01:00;;;;;;;23.52;6.80;;;;;;;10.39;57.94;102866.91;5195658;28;20442;-48
2022/05/09 01:03:39;;;;;;;14.32;5.55;;;;;;;10.64;58.12;102883.81;5190693;28;20500;-41
2022/05/09 01:06:12;;;;;;;22.27;6.10;;;;;;;10.63;58.01;102882.13;5196588;28;20443;-51
2022/05/09 01:08:45;;;;;;;20.23;6.47;;;;;;;10.60;58.10;102884.03;5196211;28;20411;-50
2022/05/09 01:11:22;;;;;;;19.40;7.13;;;;;;;10.46;58.07;102851.50;5192183;28;20502;-53
2022/05/09 01:14:02;;;;;;;23.33;6.40;;;;;;;10.65;58.11;102882.88;5192912;28;20413;-51
2022/05/09 01:16:35;;;;;;;22.70;6.47;;;;;;;10.52;58.10;102854.59;5199318;28;20398;-49
2022/05/09 01:19:26;;;;;;;21.40;6.40;;;;;;;10.61;58.14;102877.78;5193501;28;20425;-46
2022/05/09 01:22:02;;;;;;;21.98;7.32;;;;;;;10.56;58.24;102866.69;5189536;28;20395;-47
2022/05/09 01:24:34;;;;;;;17.48;6.28;;;;;;;10.56;58.27;102876.38;5189868;28;20422;-46
2022/05/09 01:27:07;;;;;;;24.27;6.10;;;;;;;10.56;58.35;102871.97;5195422;28;20446;-48
2022/05/09 01:29:47;;;;;;;26.92;7.32;;;;;;;10.48;58.27;102857.56;5193278;28;20779;-46
2022/05/09 01:32:26;;;;;;;22.73;6.18;;;;;;;10.49;58.46;102873.28;5189630;28;20433;-47
2022/05/09 01:35:05;;;;;;;25.97;6.53;;;;;;;10.43;58.26;102844.63;5198044;28;20419;-49
2022/05/09 01:37:42;;;;;;;18.15;6.18;;;;;;;10.26;58.27;102821.09;5188488;28;20677;-47
2022/05/09 01:40:15;;;;;;;26.33;6.88;;;;;;;10.48;58.47;102858.41;5196175;28;20511;-47
2022/05/09 01:42:47;;;;;;;23.05;6.60;;;;;;;10.48;58.46;102853.13;5196678;28;21792;-46
2022/05/09 01:45:20;;;;;;;22.45;6.93;;;;;;;10.33;58.70;102832.97;5198469;28;20449;-49
2022/05/09 01:50:43;;;;;;;21.35;6.85;;;;;;;10.42;58.59;102850.03;5195824;28;20875;-49
2022/05/09 01:53:17;;;;;;;21.88;6.68;;;;;;;10.25;58.77;102819.38;5198392;28;20412;-49
2022/05/09 01:55:49;;;;;;;19.80;6.20;;;;;;;10.41;58.69;102851.81;5203269;28;20494;-48
2022/05/09 01:58:24;;;;;;;22.48;7.28;;;;;;;10.37;58.74;102850.31;5192562;28;20427;-50
2022/05/09 02:00:56;;;;;;;17.40;6.07;;;;;;;10.38;58.83;102847.59;5195129;28;20759;-48
2022/05/09 02:03:29;;;;;;;20.65;7.25;;;;;;;10.25;58.79;102827.31;5192325;28;20425;-50
2022/05/09 02:06:01;;;;;;;21.88;6.53;;;;;;;9.67;58.50;102742.97;5197071;28;20507;-50
2022/05/09 02:08:36;;;;;;;22.40;7.17;;;;;;;10.23;58.92;102829.22;5194743;28;20418;-50
2022/05/09 02:11:09;;;;;;;21.33;6.35;;;;;;;10.36;58.95;102843.34;5186283;28;20430;-51
2022/05/09 02:13:42;;;;;;;20.35;7.47;;;;;;;10.20;58.74;102824.97;5188233;28;20427;-48
2022/05/09 02:16:15;;;;;;;19.13;6.68;;;;;;;10.32;58.95;102852.41;5206227;28;20418;-50
2022/05/09 02:18:50;;;;;;;20.95;6.53;;;;;;;10.28;59.05;102841.22;5198056;28;20422;-52
2022/05/09 02:21:22;;;;;;;21.10;6.15;;;;;;;10.19;58.89;102835.63;5200350;28;20970;-52
2022/05/09 02:23:56;;;;;;;24.38;7.30;;;;;;;10.28;58.99;102850.91;5201388;28;20413;-50
2022/05/09 02:26:29;;;;;;;23.10;6.85;;;;;;;10.22;58.94;102835.41;5196633;28;21630;-47
2022/05/09 02:29:04;;;;;;;22.02;7.72;;;;;;;10.26;59.11;102837.81;5196272;28;20539;-50
2022/05/09 02:31:37;;;;;;;21.90;7.97;;;;;;;10.22;58.92;102832.78;5198514;28;20984;-50
2022/05/09 02:34:09;;;;;;;21.30;6.55;;;;;;;10.14;59.17;102834.13;5199515;28;20886;-46
2022/05/09 02:36:42;;;;;;;20.38;7.35;;;;;;;10.23;59.11;102842.41;5192463;28;20477;-47
2022/05/09 02:39:16;;;;;;;22.52;7.15;;;;;;;10.19;59.13;102840.91;5194105;28;20422;-50
2022/05/09 02:41:49;;;;;;;23.88;7.15;;;;;;;10.21;59.28;102836.38;5182193;28;20495;-50
2022/05/09 02:44:24;;;;;;;20.27;7.10;;;;;;;10.21;59.34;102839.00;5191591;28;20506;-53
2022/05/09 02:46:57;;;;;;;25.77;7.70;;;;;;;10.12;59.25;102825.44;5198444;28;20443;-45
2022/05/09 02:49:29;;;;;;;20.45;7.32;;;;;;;10.18;59.29;102839.22;5200854;28;20421;-50
2022/05/09 02:52:04;;;;;;;26.15;6.93;;;;;;;10.16;59.42;102832.25;5196160;28;21637;-48
2022/05/09 02:54:39;;;;;;;20.70;7.45;;;;;;;9.96;59.47;102814.16;5194836;28;20903;-50
2022/05/09 02:57:12;;;;;;;21.33;7.50;;;;;;;10.14;59.55;102825.34;5198355;28;20466;-47
2022/05/09 02:59:44;;;;;;;26.15;7.95;;;;;;;10.06;59.49;102817.91;5194192;28;20897;-50
2022/05/09 03:02:19;;;;;;;22.50;7.73;;;;;;;10.10;59.55;102822.06;5199446;28;20528;-50
2022/05/09 03:04:51;;;;;;;22.88;7.30;;;;;;;10.02;59.32;102818.22;5192558;28;20431;-51
2022/05/09 03:07:23;;;;;;;24.83;7.35;;;;;;;10.06;59.62;102815.28;5195403;28;20559;-51
2022/05/09 03:09:59;;;;;;;24.23;7.50;;;;;;;10.01;59.66;102812.09;5194218;28;20417;-50
2022/05/09 03:12:32;;;;;;;23.42;6.80;;;;;;;9.83;59.80;102786.88;5202340;28;20490;-49
2022/05/09 03:15:05;;;;;;;25.95;7.50;;;;;;;10.03;59.75;102822.53;5184890;28;20461;-45
2022/05/09 03:17:38;;;;;;;20.80;6.53;;;;;;;9.99;59.79;102813.97;5199386;28;20428;-48
2022/05/09 03:20:12;;;;;;;24.33;8.18;;;;;;;10.01;59.66;102814.75;5199381;28;20437;-46
2022/05/09 03:22:44;;;;;;;25.65;6.95;;;;;;;10.00;59.70;102809.53;5196051;28;20406;-47
2022/05/09 03:25:19;;;;;;;30.63;8.18;;;;;;;9.84;59.83;102804.41;5190356;28;20430;-52
2022/05/09 03:27:52;;;;;;;20.25;7.65;;;;;;;9.87;59.82;102789.22;5193273;28;20640;-46
2022/05/09 03:30:25;;;;;;;18.02;8.20;;;;;;;9.54;59.64;102744.72;5191320;28;20853;-47
2022/05/09 03:32:57;;;;;;;27.40;8.20;;;;;;;9.91;59.71;102806.56;5198804;28;20414;-51
2022/05/09 03:35:32;;;;;;;18.50;7.85;;;;;;;9.74;59.96;102774.25;5193624;28;20427;-50
2022/05/09 03:38:05;;;;;;;28.13;8.57;;;;;;;9.89;59.95;102799.69;5193493;28;20407;-51
2022/05/09 03:40:39;;;;;;;23.13;7.72;;;;;;;9.81;60.12;102784.31;5193762;28;20510;-48
2022/05/09 03:43:12;;;;;;;21.43;7.97;;;;;;;9.73;59.92;102773.41;5189334;28;20434;-50
2022/05/09 03:45:47;;;;;;;26.98;8.60;;;;;;;9.83;60.08;102786.88;5193140;28;20425;-47
2022/05/09 03:48:20;;;;;;;26.45;8.75;;;;;;;9.76;60.11;102780.31;5201317;28;20429;-48
2022/05/09 03:50:52;;;;;;;27.58;9.18;;;;;;;9.70;60.29;102770.97;5182574;28;20517;-47
2022/05/09 03:53:26;;;;;;;29.92;8.90;;;;;;;9.75;60.17;102812.88;5156047;28;20408;-48
2022/05/09 03:56:01;;;;;;;19.10;9.02;;;;;;;9.77;60.25;102798.66;5167757;28;20486;-47
2022/05/09 03:58:34;;;;;;;22.55;8.45;;;;;;;9.55;60.13;102751.66;5170585;28;20403;-49
2022/05/09 04:01:07;;;;;;;26.90;9.27;;;;;;;9.79;60.29;102788.03;5158524;28;20507;-47
2022/05/09 04:03:40;;;;;;;22.90;8.18;;;;;;;9.59;60.21;102754.97;5177104;28;20753;-48
2022/05/09 04:06:13;;;;;;;26.13;9.05;;;;;;;9.77;60.08;102776.72;5180720;28;20444;-53
2022/05/09 04:08:46;;;;;;;25.77;8.55;;;;;;;9.73;60.38;102801.59;5172074;28;20875;-49
2022/05/09 04:11:19;;;;;;;23.67;8.35;;;;;;;9.73;60.40;102770.78;5170784;28;20578;-46
2022/05/09 04:13:52;;;;;;;30.77;9.02;;;;;;;9.80;60.24;102776.50;5178997;28;20521;-47
2022/05/09 04:19:14;;;;;;;25.25;9.13;;;;;;;9.81;60.33;102772.91;5169609;28;20748;-47
2022/05/09 04:21:47;;;;;;;31.20;10.55;;;;;;;9.73;60.41;102759.38;5169498;28;20509;-50
2022/05/09 04:24:20;;;;;;;23.92;9.18;;;;;;;9.84;60.40;102770.94;5168634;28;20561;-45
2022/05/09 04:26:54;;;;;;;23.77;8.82;;;;;;;9.64;60.58;102734.41;5170278;28;20428;-48
2022/05/09 04:29:26;;;;;;;27.55;8.25;;;;;;;9.69;60.74;102743.75;5172063;28;20902;-49
2022/05/09 04:31:59;;;;;;;25.80;9.20;;;;;;;9.81;60.62;102757.09;5173584;28;20454;-45
2022/05/09 04:34:31;;;;;;;30.27;10.77;;;;;;;9.87;60.42;102756.69;5175506;28;20887;-46
2022/05/09 04:37:04;;;;;;;23.30;9.35;;;;;;;9.96;60.46;102764.03;5168744;28;20489;-48
2022/05/09 04:39:37;;;;;;;29.88;9.32;;;;;;;9.98;60.16;102759.50;5178742;28;20994;-47
2022/05/09 04:42:12;;;;;;;24.05;8.70;;;;;;;9.96;60.36;102752.63;5182768;28;20401;-47
2022/05/09 04:44:48;;;;;;;22.60;7.95;;;;;;;10.10;60.37;102760.50;5174246;28;20420;-48
2022/05/09 04:47:20;;;;;;;28.97;9.97;;;;;;;10.01;60.37;102742.63;5162440;28;20537;-51
2022/05/09 04:49:53;;;;;;;25.40;9.27;;;;;;;10.03;60.46;102738.91;5179958;28;20458;-47
2022/05/09 04:52:26;;;;;;;25.75;8.80;;;;;;;10.13;60.47;102740.03;5198227;28;20404;-45
2022/05/09 04:54:59;;;;;;;26.05;9.25;;;;;;;10.26;60.36;102747.16;5179247;28;20468;-51
2022/05/09 04:57:33;;;;;;;29.50;8.90;;;;;;;10.33;60.45;102748.47;5177784;28;20900;-49
2022/05/09 05:00:08;;;;;;;29.17;8.82;;;;;;;10.38;60.29;102746.38;5192106;28;20427;-50
2022/05/09 05:02:41;;;;;;;18.65;7.47;;;;;;;10.38;60.51;102739.28;5194090;28;20825;-47
2022/05/09 05:05:14;;;;;;;27.67;8.68;;;;;;;10.44;60.28;102729.28;5194045;28;20896;-49
2022/05/09 05:07:48;;;;;;;20.77;8.65;;;;;;;10.54;60.34;102740.91;5195055;28;20583;-50
2022/05/09 05:10:21;;;;;;;20.77;9.40;;;;;;;10.50;60.33;102724.44;5195400;28;20420;-47
2022/05/09 05:12:56;;;;;;;20.27;7.90;;;;;;;10.68;59.70;102753.19;5192851;28;20415;-47
2022/05/09 05:15:30;;;;;;;21.23;8.30;;;;;;;10.75;60.07;102751.84;5196682;28;20403;-47
2022/05/09 05:18:02;;;;;;;25.75;8.38;;;;;;;10.82;60.09;102745.16;5194219;28;20429;-48
2022/05/09 05:20:35;;;;;;;22.75;8.57;;;;;;;10.79;60.18;102735.66;5197572;28;20421;-50
2022/05/09 05:23:10;;;;;;;27.07;8.33;;;;;;;10.94;59.91;102744.34;5188005;28;20520;-48
2022/05/09 05:25:45;;;;;;;16.90;7.65;;;;;;;10.59;60.02;102718.53;5184872;28;20913;-51
2022/05/09 05:28:19;;;;;;;22.75;8.07;;;;;;;10.35;60.02;102640.94;5191619;28;20471;-47
2022/05/09 05:30:53;;;;;;;24.60;8.02;;;;;;;11.11;59.82;102740.50;5182319;28;20426;-49
2022/05/09 05:33:25;;;;;;;22.60;7.25;;;;;;;11.59;59.30;102702.78;5182950;28;20440;-47
2022/05/09 05:35:58;;;;;;;23.08;7.55;;;;;;;11.98;58.79;102723.72;5191612;28;20506;-50
2022/05/09 05:38:30;;;;;;;19.13;7.63;;;;;;;12.29;58.50;102729.38;5195069;28;20510;-51
2022/05/09 05:41:03;;;;;;;15.52;6.82;;;;;;;13.22;57.26;102692.16;5203213;28;20872;-50
2022/05/09 05:43:37;;;;;;;25.13;6.78;;;;;;;15.05;55.90;102723.09;5187208;28;20432;-49
2022/05/09 05:46:12;;;;;;;17.20;5.60;;;;;;;16.69;54.21;102729.66;5188053;28;20470;-52
2022/05/09 05:48:44;;;;;;;23.80;6.43;;;;;;;17.97;52.92;102731.59;5203102;28;20427;-50
2022/05/09 05:51:18;;;;;;;12.07;5.32;;;;;;;19.09;51.43;102710.34;5189454;28;20407;-51
2022/05/09 05:53:51;;;;;;;16.23;5.40;;;;;;;20.38;49.86;102744.03;5186347;28;20533;-50
2022/05/09 05:56:23;;;;;;;15.65;5.35;;;;;;;21.24;48.83;102743.34;5182649;28;20502;-51
2022/05/09 05:59:00;;;;;;;18.23;5.20;;;;;;;22.15;47.52;102743.69;5182194;28;20422;-51
2022/05/09 06:01:34;;;;;;;15.13;5.55;;;;;;;22.82;46.22;102743.75;5185348;28;20509;-54
2022/05/09 06:04:06;;;;;;;19.63;5.47;;;;;;;23.62;45.11;102732.16;5167352;28;20438;-51
2022/05/09 06:06:39;;;;;;;14.63;5.10;;;;;;;24.10;43.98;102723.56;5174953;28;20431;-54
2022/05/09 06:09:46;;;;;;;19.88;5.50;;;;;;;25.28;42.65;102743.53;5181395;28;20426;-55
2022/05/09 06:12:22;;;;;;;13.85;4.13;;;;;;;26.18;41.42;102742.28;5173453;28;20427;-56
2022/05/09 06:17:45;;;;;;;15.80;4.53;;;;;;;27.60;39.01;102726.31;5177911;28;20990;-53
2022/05/09 06:20:20;;;;;;;12.77;4.50;;;;;;;28.16;38.21;102730.97;5181035;28;20430;-58
2022/05/09 06:22:56;;;;;;;10.20;3.85;;;;;;;28.43;37.60;102706.28;5138589;28;20449;-54
2022/05/09 06:25:31;;;;;;;12.95;4.40;;;;;;;29.21;36.66;102738.28;5176981;28;20501;-56
2022/05/09 06:28:06;;;;;;;17.08;4.68;;;;;;;29.68;35.82;102724.06;5152155;28;20450;-57
2022/05/09 06:30:40;;;;;;;14.88;4.45;;;;;;;30.32;34.83;102739.59;5151955;28;20800;-57
2022/05/09 06:33:21;;;;;;;20.13;5.20;;;;;;;30.57;34.08;102738.53;5171099;28;20510;-57
2022/05/09 06:35:56;;;;;;;14.38;4.25;;;;;;;30.83;33.83;102747.31;5165670;28;20480;-57
2022/05/09 06:38:34;;;;;;;18.45;4.50;;;;;;;31.27;33.00;102747.66;5194588;28;20486;-58
2022/05/09 06:41:10;;;;;;;20.58;5.38;;;;;;;31.76;32.31;102739.84;5176410;28;20505;-58
2022/05/09 06:43:43;;;;;;;12.77;4.18;;;;;;;32.15;31.69;102730.72;5159128;28;20496;-61
2022/05/09 06:46:17;;;;;;;13.43;4.70;;;;;;;32.22;31.20;102726.97;5167412;28;20874;-58
2022/05/09 06:48:49;;;;;;;18.60;4.43;;;;;;;32.13;31.35;102741.06;5180340;28;20907;-58
2022/05/09 06:51:22;;;;;;;19.33;5.38;;;;;;;32.29;30.70;102749.50;5179283;28;20433;-57
2022/05/09 06:53:54;;;;;;;21.50;4.75;;;;;;;32.34;30.64;102744.13;5187170;28;20399;-54
2022/05/09 06:56:27;;;;;;;18.20;4.30;;;;;;;32.45;30.39;102735.00;5186587;28;20415;-55
2022/05/09 06:59:00;;;;;;;21.77;5.35;;;;;;;32.77;29.52;102750.78;5184709;28;20827;-55
2022/05/09 07:01:35;;;;;;;20.52;5.43;;;;;;;33.12;28.84;102738.66;5176235;28;20443;-54
2022/05/09 07:04:08;;;;;;;15.77;5.37;;;;;;;32.91;28.71;102711.00;5160654;28;20420;-56
2022/05/09 07:06:40;;;;;;;20.05;4.82;;;;;;;33.24;28.60;102736.59;5171258;28;20426;-56
2022/05/09 07:09:15;;;;;;;22.52;5.05;;;;;;;33.36;28.19;102739.19;5185869;28;20496;-55
2022/05/09 07:11:50;;;;;;;17.03;5.17;;;;;;;33.26;28.14;102715.25;5205690;28;20417;-57
2022/05/09 07:14:22;;;;;;;16.13;5.13;;;;;;;33.44;27.89;102742.28;5188452;28;20419;-55
2022/05/09 07:16:56;;;;;;;16.17;4.83;;;;;;;33.45;27.90;102727.50;5183170;28;20631;-56
2022/05/09 07:19:29;;;;;;;16.13;4.40;;;;;;;33.39;27.43;102728.53;5179847;28;20447;-56
2022/05/09 07:22:02;;;;;;;12.25;4.10;;;;;;;33.40;27.71;102732.91;5178438;28;20425;-57
2022/05/09 07:24:34;;;;;;;19.25;4.65;;;;;;;33.21;27.51;102742.59;5167046;28;20773;-58
2022/05/09 07:27:07;;;;;;;19.90;4.45;;;;;;;33.17;27.60;102736.78;5188351;28;20492;-57
2022/05/09 07:29:42;;;;;;;16.45;3.85;;;;;;;33.14;27.25;102744.66;5189074;28;20440;-58
2022/05/09 07:32:16;;;;;;;18.70;4.45;;;;;;;33.00;27.53;102723.16;5195550;28;20427;-59
2022/05/09 07:34:49;;;;;;;13.38;4.18;;;;;;;32.94;27.18;102742.50;5182930;28;20434;-58
2022/05/09 07:37:22;;;;;;;22.20;5.18;;;;;;;32.66;27.06;102740.78;5186203;28;20750;-57
2022/05/09 07:39:55;;;;;;;21.15;5.25;;;;;;;32.34;27.53;102733.19;5183755;28;20429;-57
2022/05/09 07:42:28;;;;;;;20.65;4.18;;;;;;;32.54;27.25;102735.41;5183778;28;20490;-58
2022/05/09 07:45:00;;;;;;;19.70;3.92;;;;;;;32.37;27.39;102733.50;5185515;28;20891;-58
2022/05/09 07:47:34;;;;;;;18.25;3.92;;;;;;;32.11;27.43;102713.13;5180469;28;20787;-57
2022/05/09 07:50:10;;;;;;;19.90;4.40;;;;;;;32.38;27.13;102723.38;5167145;28;20413;-60
2022/05/09 07:52:43;;;;;;;18.27;4.25;;;;;;;32.59;26.87;102714.41;5198539;28;20437;-59
2022/05/09 07:55:16;;;;;;;17.30;4.20;;;;;;;32.71;26.97;102727.16;5189576;28;20666;-57
2022/05/09 07:57:49;;;;;;;16.83;4.07;;;;;;;32.78;27.04;102722.31;5203842;28;20471;-57
2022/05/09 08:00:21;;;;;;;14.85;4.00;;;;;;;32.74;27.03;102722.00;5202117;28;20449;-57
2022/05/09 08:02:55;;;;;;;14.95;4.22;;;;;;;32.08;26.92;102658.97;5201232;28;22369;-55
2022/05/09 08:05:28;;;;;;;15.15;3.92;;;;;;;32.66;26.86;102718.88;5205291;28;20454;-56
2022/05/09 08:08:01;;;;;;;18.80;4.05;;;;;;;32.73;27.07;102720.34;5195457;28;20425;-53
2022/05/09 08:10:35;;;;;;;20.48;4.35;;;;;;;32.78;27.10;102722.31;5181103;28;20423;-47
2022/05/09 08:13:09;;;;;;;18.48;4.40;;;;;;;32.70;26.85;102717.28;5185731;28;20409;-54
2022/05/09 08:15:44;;;;;;;16.63;5.00;;;;;;;32.28;27.18;102717.78;5202820;28;20474;-56
2022/05/09 08:18:19;;;;;;;21.35;5.25;;;;;;;31.58;27.22;102714.41;5202230;28;20832;-56
2022/05/09 08:20:53;;;;;;;14.68;4.68;;;;;;;31.03;27.63;102701.31;5187908;28;20429;-53
2022/05/09 08:23:26;;;;;;;15.80;5.15;;;;;;;31.04;27.71;102724.84;5178095;28;20492;-53
2022/05/09 08:26:00;;;;;;;17.50;4.35;;;;;;;30.76;27.68;102723.69;5200688;28;20504;-54
2022/05/09 08:28:33;;;;;;;15.47;4.87;;;;;;;30.46;27.96;102702.00;5202107;28;20503;-55
2022/05/09 08:31:06;;;;;;;16.55;4.43;;;;;;;30.18;28.13;102683.63;5200245;28;20417;-55
2022/05/09 08:33:39;;;;;;;18.98;4.85;;;;;;;30.30;27.83;102713.66;5202460;28;20467;-56
2022/05/09 08:36:12;;;;;;;20.33;5.15;;;;;;;30.15;27.96;102719.53;5205909;28;20961;-56
2022/05/09 08:38:44;;;;;;;18.17;4.35;;;;;;;29.72;28.23;102700.75;5181704;28;20430;-54
2022/05/09 08:41:20;;;;;;;18.98;4.60;;;;;;;29.46;28.31;102685.63;5180822;28;20489;-51
2022/05/09 08:44:10;;;;;;;20.55;4.82;;;;;;;29.57;28.13;102698.41;5183393;28;20877;-54
2022/05/09 08:50:15;;;;;;;19.58;4.95;;;;;;;29.61;28.07;102711.38;5181594;28;20420;-52
2022/05/09 08:52:54;;;;;;;18.13;4.90;;;;;;;29.46;27.95;102707.41;5155120;28;20437;-54
2022/05/09 08:55:32;;;;;;;19.43;5.27;;;;;;;28.85;27.87;102673.84;5161351;28;20960;-53
2022/05/09 08:58:19;;;;;;;18.80;4.13;;;;;;;28.80;28.28;102709.03;5160487;28;21136;-55
2022/05/09 09:00:53;;;;;;;24.38;5.15;;;;;;;28.54;28.37;102704.72;5156167;28;20916;-51
2022/05/09 09:03:34;;;;;;;22.38;5.65;;;;;;;28.42;28.17;102686.44;5149569;28;20442;-55
2022/05/09 09:06:22;;;;;;;15.88;4.85;;;;;;;28.13;28.05;102643.66;5115028;28;20433;-54
2022/05/09 09:09:07;;;;;;;10.83;3.97;;;;;;;28.16;28.06;102681.22;5145488;28;21603;-55
2022/05/09 09:11:54;;;;;;;19.60;3.80;;;;;;;27.68;27.93;102638.34;5154816;28;20996;-56
2022/05/09 09:14:42;;;;;;;16.98;4.43;;;;;;;27.97;27.85;102685.78;5156649;28;20415;-55
2022/05/09 09:17:33;;;;;;;15.07;4.68;;;;;;;27.93;27.64;102679.94;5161797;28;21229;-54
2022/05/09 09:20:19;;;;;;;14.23;3.83;;;;;;;27.68;27.49;102668.22;5168104;28;20779;-56
2022/05/09 09:23:23;;;;;;;12.25;4.30;;;;;;;27.28;27.41;102663.03;5177537;28;20441;-54
2022/05/09 09:26:05;;;;;;;10.98;3.78;;;;;;;26.71;27.81;102662.03;5162884;28;20401;-53
2022/05/09 09:28:46;;;;;;;11.45;3.20;;;;;;;26.37;27.87;102662.06;5158520;28;20419;-53
2022/05/09 09:31:27;;;;;;;16.85;4.72;;;;;;;26.24;27.70;102666.69;5156331;28;20469;-53
2022/05/09 09:34:10;;;;;;;20.05;4.53;;;;;;;25.43;27.53;102554.03;5146015;28;20428;-54
2022/05/09 09:36:53;;;;;;;18.70;4.47;;;;;;;26.13;27.40;102633.75;5150514;28;20525;-53
2022/05/09 09:39:27;;;;;;;16.83;4.00;;;;;;;26.22;27.13;102637.06;5158155;28;20442;-54
2022/05/09 09:42:02;;;;;;;14.48;4.03;;;;;;;26.51;26.78;102657.50;5160903;28;20748;-54
2022/05/09 09:44:38;;;;;;;16.75;3.95;;;;;;;26.48;26.70;102657.88;5163076;28;20890;-53
2022/05/09 09:47:22;;;;;;;16.90;4.00;;;;;;;25.75;26.69;102555.88;5160572;28;21747;-52
2022/05/09 09:50:16;;;;;;;16.90;5.15;;;;;;;26.33;26.62;102649.16;5168885;28;20422;-51
2022/05/09 09:52:52;;;;;;;15.10;3.90;;;;;;;26.32;26.51;102647.47;5194574;28;20511;-52
2022/05/09 09:55:30;;;;;;;12.85;4.00;;;;;;;26.14;26.50;102651.69;5193627;28;21248;-53
2022/05/09 09:58:23;;;;;;;14.07;3.33;;;;;;;25.76;26.68;102646.84;5196830;28;20596;-53
2022/05/09 10:01:06;;;;;;;10.50;3.58;;;;;;;25.59;26.82;102642.91;5191021;28;20483;-54
2022/05/09 10:03:42;;;;;;;19.13;4.53;;;;;;;25.38;26.67;102619.53;5191057;28;20776;-57
2022/05/09 10:06:18;;;;;;;16.80;3.60;;;;;;;25.38;26.76;102634.94;5194859;28;20567;-54
2022/05/09 10:09:00;;;;;;;13.05;3.53;;;;;;;25.30;26.76;102628.69;5201625;28;20927;-53
2022/05/09 10:11:34;;;;;;;16.42;3.95;;;;;;;25.35;26.67;102629.94;5201756;28;20960;-53
2022/05/09 10:14:13;;;;;;;9.55;3.17;;;;;;;25.53;26.53;102635.59;5183528;28;20429;-52
2022/05/09 10:16:48;;;;;;;14.55;3.83;;;;;;;25.39;26.45;102582.50;5200685;28;20520;-53
2022/05/09 10:19:32;;;;;;;14.27;3.03;;;;;;;25.52;26.48;102615.00;5198390;28;20421;-51
2022/05/09 10:25:13;;;;;;;12.33;2.60;;;;;;;25.68;26.48;102624.59;5198903;28;20454;-53
2022/05/09 10:28:00;;;;;;;12.48;3.63;;;;;;;25.76;26.03;102606.25;5201455;28;20409;-52
2022/05/09 10:30:35;;;;;;;10.30;2.63;;;;;;;25.80;25.89;102603.13;5202204;28;20417;-55
2022/05/09 10:33:17;;;;;;;10.30;2.40;;;;;;;25.62;26.19;102599.19;5199653;28;20477;-53
2022/05/09 10:35:53;;;;;;;10.43;2.53;;;;;;;25.76;26.02;102611.66;5202599;28;20502;-55
2022/05/09 10:38:33;;;;;;;15.10;3.55;;;;;;;25.85;26.00;102609.63;5204292;28;20903;-53
2022/05/09 10:41:13;;;;;;;8.88;3.28;;;;;;;26.03;25.74;102608.16;5156357;28;20508;-53
2022/05/09 10:43:54;;;;;;;12.27;2.95;;;;;;;26.24;25.54;102604.38;5208613;28;20519;-55
2022/05/09 10:46:40;;;;;;;10.77;2.45;;;;;;;26.48;25.53;102609.13;5203318;28;20911;-53
2022/05/09 10:49:29;;;;;;;12.98;3.15;;;;;;;26.61;25.31;102592.84;5189447;28;21038;-54
2022/05/09 10:52:16;;;;;;;8.48;2.42;;;;;;;26.53;25.33;102595.78;5203026;28;20992;-54
2022/05/09 10:54:53;;;;;;;9.35;3.13;;;;;;;26.58;25.21;102590.56;5187144;28;20491;-53
2022/05/09 10:57:32;;;;;;;6.72;2.88;;;;;;;26.51;25.13;102589.75;5202810;28;20856;-55
2022/05/09 11:00:14;;;;;;;9.13;3.23;;;;;;;26.72;25.09;102566.91;5199335;28;20639;-55
2022/05/09 11:03:04;;;;;;;7.75;2.22;;;;;;;26.48;25.18;102527.84;5200103;28;20429;-51
2022/05/09 11:05:55;;;;;;;9.50;2.72;;;;;;;26.41;25.19;102554.09;5198948;28;20413;-50
2022/05/09 11:08:36;;;;;;;10.52;2.88;;;;;;;26.50;25.16;102579.94;5201030;28;20974;-50
2022/05/09 11:11:19;;;;;;;12.20;2.92;;;;;;;26.41;25.00;102573.06;5195698;28;20421;-52
2022/05/09 11:14:02;;;;;;;8.23;2.92;;;;;;;26.55;25.00;102582.84;5195969;28;20431;-51
2022/05/09 11:16:50;;;;;;;10.00;2.58;;;;;;;26.58;25.06;102585.13;5197708;28;20406;-49
2022/05/09 11:19:36;;;;;;;16.13;3.10;;;;;;;26.52;25.13;102571.63;5202152;28;20856;-55
2022/05/09 11:22:22;;;;;;;9.82;3.03;;;;;;;26.48;25.16;102582.03;5188925;28;20422;-52
2022/05/09 11:25:17;;;;;;;11.35;2.47;;;;;;;26.56;25.07;102568.25;5183949;28;24273;-53
2022/05/09 11:28:05;;;;;;;8.05;2.40;;;;;;;26.75;24.98;102573.78;5195462;28;20445;-52
2022/05/09 11:30:40;;;;;;;11.82;2.70;;;;;;;26.82;24.75;102571.88;5191052;28;20526;-54
2022/05/09 11:33:36;;;;;;;13.65;3.17;;;;;;;27.08;24.64;102581.75;5176908;28;20415;-51
2022/05/09 11:36:28;;;;;;;11.37;3.27;;;;;;;27.05;24.62;102568.63;5188738;28;20425;-51
2022/05/09 11:39:07;;;;;;;5.65;2.08;;;;;;;26.90;24.81;102587.91;5196279;28;20504;-50
2022/05/09 11:41:48;;;;;;;9.20;2.83;;;;;;;26.62;25.14;102555.72;5197525;28;20432;-53
2022/05/09 11:44:28;;;;;;;8.38;2.70;;;;;;;26.63;25.05;102552.81;5201149;28;20437;-49
2022/05/09 11:47:26;;;;;;;12.00;2.50;;;;;;;26.83;24.86;102535.59;5195362;28;20437;-51
2022/05/09 11:50:35;;;;;;;11.20;3.15;;;;;;;26.91;24.59;102521.78;5192093;28;20473;-49
2022/05/09 11:53:09;;;;;;;13.07;3.37;;;;;;;27.32;24.54;102536.78;5194618;28;20517;-50
2022/05/09 11:55:43;;;;;;;15.02;3.05;;;;;;;27.41;24.37;102532.75;5184258;28;20412;-52
2022/05/09 11:58:43;;;;;;;12.57;3.10;;;;;;;27.43;24.31;102530.63;5164348;28;20548;-53
2022/05/09 12:01:16;;;;;;;7.03;3.08;;;;;;;27.54;24.21;102532.63;5174697;28;21264;-52
2022/05/09 12:03:57;;;;;;;11.52;3.42;;;;;;;27.54;24.21;102531.78;5188126;28;20437;-49
2022/05/09 12:06:42;;;;;;;10.05;3.33;;;;;;;27.50;24.33;102525.13;5196961;28;20429;-53
2022/05/09 12:10:02;;;;;;;11.05;2.97;;;;;;;27.69;24.19;102513.28;5194994;28;20449;-50
2022/05/09 12:12:49;;;;;;;11.13;3.65;;;;;;;27.73;24.32;102519.09;5193317;28;20421;-45
2022/05/09 12:15:50;;;;;;;11.43;3.83;;;;;;;27.44;24.34;102491.59;5190602;28;20808;-54
2022/05/09 12:18:27;;;;;;;12.75;3.72;;;;;;;27.43;24.42;102506.19;5169967;28;20822;-52